Time;durP1;ratioP1;P1;durP2;ratioP2;P2;SDS_P1;SDS_P2;PMS_P1;PMS_P2;Temp;Humidity;BMP_temperature;BMP_pressure;BME280_temperature;BME280_humidity;BME280_pressure;Samples;Min_cycle;Max_cycle;Signal;HPM_P1;HPM_P2
2022/06/14 00:04:36;;;;;;;2.28;1.02;;;;;;;18.23;72.05;102080.84;20877862;28;20132;-78
2022/06/14 00:14:38;;;;;;;2.58;0.85;;;;;;;18.22;71.91;102074.56;20878450;28;20119;-78
2022/06/14 00:24:39;;;;;;;1.55;0.77;;;;;;;18.13;71.84;102067.16;20878907;28;20111;-77
2022/06/14 00:34:41;;;;;;;1.70;1.00;;;;;;;18.19;71.65;102066.72;20893632;28;20149;-78
2022/06/14 00:45:23;;;;;;;1.45;0.98;;;;;;;18.02;71.49;102043.66;20873815;28;20135;-78
2022/06/14 00:55:36;;;;;;;1.73;0.95;;;;;;;18.18;71.25;102056.91;20882780;28;20049;-77
2022/06/14 01:06:05;;;;;;;1.83;0.70;;;;;;;18.03;71.30;102018.44;20884487;28;20048;-77
2022/06/14 01:16:09;;;;;;;1.67;0.90;;;;;;;18.16;70.96;102052.63;20887884;28;20504;-78
2022/06/14 01:26:14;;;;;;;1.45;0.85;;;;;;;18.15;70.84;102053.59;20856920;28;20136;-78
2022/06/14 01:36:42;;;;;;;1.23;0.52;;;;;;;18.14;70.84;102060.78;20787577;28;20401;-77
2022/06/14 01:46:44;;;;;;;2.42;0.80;;;;;;;18.14;70.61;102059.94;20772685;28;20473;-77
2022/06/14 01:56:58;;;;;;;2.28;1.15;;;;;;;18.14;70.63;102059.94;20804572;28;20049;-79
2022/06/14 02:07:02;;;;;;;3.90;0.95;;;;;;;18.13;70.18;102052.84;20803278;28;20091;-76
2022/06/14 02:17:09;;;;;;;2.53;0.60;;;;;;;18.10;70.20;102049.34;20824231;28;20044;-77
2022/06/14 02:27:27;;;;;;;1.15;0.50;;;;;;;18.10;69.95;102054.75;20775509;28;20052;-76
2022/06/14 02:37:37;;;;;;;1.95;0.63;;;;;;;17.96;69.87;102030.59;20881431;28;20106;-77
2022/06/14 02:47:49;;;;;;;1.05;0.63;;;;;;;17.99;69.59;102035.75;20881854;28;20095;-77
2022/06/14 02:58:14;;;;;;;1.23;0.80;;;;;;;17.47;69.43;101946.91;20876818;28;20049;-77
2022/06/14 03:08:19;;;;;;;0.75;0.60;;;;;;;18.08;69.30;102045.06;20864850;28;20080;-77
2022/06/14 03:18:36;;;;;;;0.93;0.68;;;;;;;18.07;69.25;102027.19;20864742;28;20047;-77
2022/06/14 03:28:46;;;;;;;1.20;0.80;;;;;;;18.05;68.99;102029.97;20878036;28;20141;-77
2022/06/14 03:38:52;;;;;;;1.95;0.70;;;;;;;18.05;68.75;102021.88;20877430;28;20045;-77
2022/06/14 03:49:04;;;;;;;2.08;0.73;;;;;;;18.04;68.73;102017.47;20877328;28;20131;-77
2022/06/14 03:59:27;;;;;;;1.52;0.80;;;;;;;17.89;68.46;101986.22;20853415;28;20045;-77
2022/06/14 04:09:55;;;;;;;1.20;0.60;;;;;;;18.05;68.63;102029.13;20831891;28;20084;-77
2022/06/14 04:20:00;;;;;;;3.25;0.95;;;;;;;18.03;68.42;102031.91;20914082;28;20053;-77
2022/06/14 04:30:19;;;;;;;1.47;0.83;;;;;;;18.04;68.26;102046.25;20852554;28;20095;-77
2022/06/14 04:40:34;;;;;;;2.08;0.80;;;;;;;17.97;68.36;102027.81;20887494;28;20390;-77
2022/06/14 04:50:43;;;;;;;1.57;0.63;;;;;;;18.02;68.35;102035.56;20875297;28;20055;-77
2022/06/14 05:00:57;;;;;;;1.38;0.70;;;;;;;17.93;68.16;102025.44;20801937;28;20107;-77
2022/06/14 05:11:02;;;;;;;1.20;0.60;;;;;;;18.03;68.14;102045.38;20903750;28;20044;-77
2022/06/14 05:21:17;;;;;;;1.57;0.80;;;;;;;17.76;68.24;102010.47;20910910;28;20136;-77
2022/06/14 05:31:43;;;;;;;0.90;0.60;;;;;;;17.90;68.14;102049.91;20874948;28;20049;-77
2022/06/14 05:41:53;;;;;;;2.63;1.10;;;;;;;17.94;67.93;102054.09;20843414;28;20048;-78
2022/06/14 05:52:00;;;;;;;1.88;0.98;;;;;;;17.92;68.05;102050.66;20850667;28;20137;-81
2022/06/14 06:02:38;;;;;;;1.55;0.68;;;;;;;17.18;68.60;101933.66;20858362;28;20064;-79
2022/06/14 06:12:45;;;;;;;2.25;0.82;;;;;;;18.02;69.19;102072.44;20797779;28;20420;-78
2022/06/14 06:22:54;;;;;;;1.70;0.90;;;;;;;18.03;69.99;102072.31;20880930;28;20072;-77
2022/06/14 06:32:56;;;;;;;1.45;0.73;;;;;;;18.03;70.67;102080.41;20851112;28;20044;-77
2022/06/14 06:43:00;;;;;;;2.75;0.95;;;;;;;18.03;71.69;102091.19;20839995;28;20172;-79
2022/06/14 06:53:13;;;;;;;4.47;1.13;;;;;;;18.06;72.55;102095.50;20863159;28;20464;-79
2022/06/14 07:03:22;;;;;;;2.92;1.10;;;;;;;18.05;72.99;102091.94;20857058;28;20395;-79
2022/06/14 07:13:30;;;;;;;3.67;1.10;;;;;;;18.08;73.37;102102.50;20842368;28;20153;-78
2022/06/14 07:23:40;;;;;;;4.15;1.17;;;;;;;18.11;73.21;102104.97;20860906;28;20540;-79
2022/06/14 07:33:42;;;;;;;3.92;1.60;;;;;;;18.09;73.34;102093.44;20851994;28;20041;-79
2022/06/14 07:43:58;;;;;;;3.42;0.90;;;;;;;18.19;73.61;102103.59;20867698;28;20049;-78
2022/06/14 07:54:16;;;;;;;2.83;0.90;;;;;;;18.11;73.49;102093.34;20877949;28;20049;-79
2022/06/14 08:04:31;;;;;;;3.95;1.17;;;;;;;18.25;72.96;102089.69;20772640;28;20183;-78
2022/06/14 08:14:40;;;;;;;1.67;0.90;;;;;;;18.29;72.85;102095.69;20783050;28;20057;-78
2022/06/14 08:24:45;;;;;;;3.38;0.93;;;;;;;18.22;72.79;102082.66;20774494;28;20046;-79
2022/06/14 08:34:57;;;;;;;1.27;1.15;;;;;;;18.23;72.49;102075.44;20755864;28;20103;-78
2022/06/14 08:45:19;;;;;;;2.53;1.10;;;;;;;18.34;72.21;102075.53;20769613;28;20053;-78
2022/06/14 08:55:36;;;;;;;1.90;1.00;;;;;;;18.29;72.17;102077.72;20781581;28;20049;-78
2022/06/14 09:05:54;;;;;;;1.83;0.88;;;;;;;18.35;72.12;102084.50;20783201;28;20099;-80
2022/06/14 09:16:11;;;;;;;3.47;1.00;;;;;;;18.32;72.11;102084.69;20786481;28;20057;-80
2022/06/14 09:26:41;;;;;;;2.25;0.88;;;;;;;18.05;71.74;102038.06;20786712;28;20080;-79
2022/06/14 09:37:04;;;;;;;2.13;0.80;;;;;;;18.30;71.61;102079.44;20770041;28;20053;-81
2022/06/14 09:47:50;;;;;;;2.45;1.02;;;;;;;18.29;71.59;102077.72;20839934;28;20053;-79
2022/06/14 09:58:24;;;;;;;2.47;0.80;;;;;;;18.20;71.64;102064.91;20843850;28;20045;-78
2022/06/14 10:08:59;;;;;;;1.83;0.90;;;;;;;18.11;71.28;102047.53;20841362;28;20107;-78
2022/06/14 10:19:13;;;;;;;1.90;0.80;;;;;;;18.16;71.09;102068.78;20829446;28;20045;-78
2022/06/14 10:29:33;;;;;;;2.97;1.17;;;;;;;18.27;71.18;102071.56;20858651;28;20055;-79
2022/06/14 10:39:53;;;;;;;1.70;0.68;;;;;;;18.27;71.11;102072.41;20849834;28;20046;-78
2022/06/14 10:50:49;;;;;;;3.08;0.80;;;;;;;18.26;71.14;102070.69;20836902;28;20405;-79
2022/06/14 11:01:09;;;;;;;1.63;0.70;;;;;;;18.10;70.96;102027.78;20741995;28;20078;-78
2022/06/14 11:11:20;;;;;;;1.73;0.90;;;;;;;18.27;70.76;102052.69;20797919;28;20744;-78
2022/06/14 11:22:04;;;;;;;0.98;0.60;;;;;;;18.27;70.77;102034.66;20855136;28;20053;-77
2022/06/14 11:32:31;;;;;;;1.33;0.60;;;;;;;18.25;70.60;102014.22;20820246;28;20099;-79
2022/06/14 11:42:52;;;;;;;2.10;0.65;;;;;;;18.30;70.50;102013.84;20854202;28;20108;-79
2022/06/14 11:53:24;;;;;;;2.38;0.90;;;;;;;18.29;70.30;102009.44;20843963;28;20054;-79
2022/06/14 12:04:00;;;;;;;1.45;0.80;;;;;;;18.29;70.25;102004.91;20852216;28;20436;-78
2022/06/14 12:14:22;;;;;;;1.67;0.80;;;;;;;18.28;70.11;102008.59;20769840;28;21307;-79
2022/06/14 12:26:34;;;;;;;1.10;0.95;;;;;;;18.29;70.09;102004.91;20776830;28;20827;-78
2022/06/14 12:34:55;;;;;;;1.55;0.75;;;;;;;18.24;69.65;101982.84;20777649;28;20394;-79
2022/06/14 12:45:00;;;;;;;1.23;0.70;;;;;;;18.32;69.74;101983.13;20790238;28;20049;-79
2022/06/14 12:55:08;;;;;;;1.58;0.70;;;;;;;18.31;69.57;101976.00;20797503;28;20117;-79
2022/06/14 13:05:10;;;;;;;0.70;0.50;;;;;;;18.30;69.72;101952.72;20854636;28;20166;-79
2022/06/14 13:15:28;;;;;;;1.83;0.70;;;;;;;18.30;69.47;101944.66;20856154;28;20112;-78
2022/06/14 13:25:53;;;;;;;2.15;0.65;;;;;;;18.30;69.27;101930.28;20859465;28;20061;-78
2022/06/14 13:36:04;;;;;;;1.20;0.50;;;;;;;18.17;69.45;101917.72;20823415;28;20057;-79
2022/06/14 13:46:26;;;;;;;1.00;0.50;;;;;;;18.29;69.46;101934.84;20788030;28;20053;-79
2022/06/14 13:56:57;;;;;;;1.75;0.70;;;;;;;18.31;69.40;101930.19;20787776;28;20505;-79
2022/06/14 14:07:12;;;;;;;1.10;0.60;;;;;;;18.24;68.98;101912.75;20796459;28;20053;-79
2022/06/14 14:17:25;;;;;;;1.03;0.50;;;;;;;18.30;69.09;101915.00;20853181;28;20076;-79
2022/06/14 14:27:33;;;;;;;0.65;0.50;;;;;;;18.30;69.21;101904.22;20862021;28;20594;-78
2022/06/14 14:37:59;;;;;;;1.48;0.60;;;;;;;18.31;69.12;101895.16;20789549;28;20123;-79
2022/06/14 14:48:20;;;;;;;0.93;0.60;;;;;;;18.30;69.14;101897.94;20822360;28;20049;-79
2022/06/14 14:58:51;;;;;;;1.65;0.63;;;;;;;18.32;69.15;101896.88;20855289;28;20077;-77
2022/06/14 15:08:57;;;;;;;1.13;0.60;;;;;;;18.24;69.33;101878.56;20854563;28;20500;-78
2022/06/14 15:29:41;;;;;;;0.82;0.60;;;;;;;18.22;69.26;101860.81;20788819;28;20119;-79
2022/06/14 15:39:52;;;;;;;1.42;0.70;;;;;;;18.34;69.33;101867.97;20772386;28;20057;-78
2022/06/14 15:49:54;;;;;;;0.60;0.60;;;;;;;18.34;69.38;101849.09;20839753;28;20041;-79
2022/06/14 16:00:06;;;;;;;2.05;0.70;;;;;;;18.34;69.38;101840.13;20833348;28;20053;-79
2022/06/14 16:10:13;;;;;;;1.20;0.70;;;;;;;18.34;69.33;101841.00;20846683;28;20041;-79
2022/06/14 16:20:21;;;;;;;1.25;0.85;;;;;;;18.34;69.66;101829.34;20861424;28;20103;-79
2022/06/14 16:30:33;;;;;;;1.63;0.60;;;;;;;18.35;69.90;101821.16;20876581;28;20040;-77
2022/06/14 16:40:40;;;;;;;1.88;0.65;;;;;;;18.26;69.84;101805.69;20839124;28;20057;-77
2022/06/14 16:50:52;;;;;;;1.48;0.80;;;;;;;18.37;69.82;101811.09;20852809;28;20045;-78
2022/06/14 17:00:59;;;;;;;2.15;0.90;;;;;;;18.37;69.99;101800.31;20836516;28;20053;-78
2022/06/14 17:11:27;;;;;;;2.25;0.70;;;;;;;18.43;69.93;101800.81;20801680;28;20136;-78
2022/06/14 17:21:59;;;;;;;1.05;0.70;;;;;;;18.22;69.92;101764.63;20806854;28;20049;-78
2022/06/14 17:32:06;;;;;;;1.23;0.60;;;;;;;18.27;69.90;101772.38;20805478;28;20073;-78
2022/06/14 17:42:14;;;;;;;1.45;0.73;;;;;;;18.40;69.99;101796.53;20800715;28;20084;-78
2022/06/14 17:52:41;;;;;;;1.15;0.60;;;;;;;18.39;70.10;101792.13;20806383;28;20053;-78
2022/06/14 18:03:01;;;;;;;1.33;0.70;;;;;;;18.36;70.19;101793.22;20804262;28;20448;-78
2022/06/14 18:13:12;;;;;;;0.95;0.60;;;;;;;17.77;70.15;101691.66;20802054;28;20050;-78
2022/06/14 18:23:26;;;;;;;1.55;0.63;;;;;;;18.27;70.41;101785.84;20794536;28;20045;-78
2022/06/14 18:33:32;;;;;;;0.75;0.50;;;;;;;18.36;70.50;101800.47;20814883;28;20065;-77
2022/06/14 18:44:05;;;;;;;0.68;0.60;;;;;;;18.35;70.73;101793.34;20903165;28;20383;-79
2022/06/14 18:54:13;;;;;;;1.88;0.60;;;;;;;18.34;70.83;101800.56;20878709;28;20061;-77
2022/06/14 19:04:23;;;;;;;1.13;0.60;;;;;;;18.35;70.90;101804.13;20814449;28;20045;-77
2022/06/14 19:14:43;;;;;;;1.80;0.98;;;;;;;18.34;71.45;101792.47;20812486;28;20056;-77
2022/06/14 19:25:03;;;;;;;1.25;0.70;;;;;;;18.34;71.52;101794.28;20797189;28;20452;-77
2022/06/14 19:35:16;;;;;;;1.50;0.80;;;;;;;18.32;71.73;101805.22;20792940;28;20136;-77
2022/06/14 19:45:26;;;;;;;0.95;0.63;;;;;;;18.10;71.89;101766.41;20792560;28;20061;-77
2022/06/14 19:55:33;;;;;;;1.33;0.57;;;;;;;18.30;72.16;101804.47;20717325;28;20049;-77
2022/06/14 20:05:35;;;;;;;2.28;0.85;;;;;;;18.31;72.31;101822.38;20697465;28;20053;-77
2022/06/14 20:15:43;;;;;;;3.28;1.10;;;;;;;18.31;72.42;101821.50;20747137;28;20502;-77
2022/06/14 20:25:51;;;;;;;1.48;0.70;;;;;;;18.31;72.67;101827.75;20793938;28;20497;-76
2022/06/14 20:35:55;;;;;;;0.90;0.60;;;;;;;18.20;72.62;101809.69;20825533;28;20098;-77
2022/06/14 20:45:57;;;;;;;1.60;0.77;;;;;;;18.29;72.38;101821.63;20884611;28;20102;-77
2022/06/14 20:56:09;;;;;;;2.58;0.70;;;;;;;18.13;72.91;101788.72;20892042;28;20052;-77
2022/06/14 21:06:12;;;;;;;1.42;0.77;;;;;;;18.29;72.80;101813.53;20888610;28;20044;-77
2022/06/14 21:16:14;;;;;;;0.70;0.70;;;;;;;18.27;72.93;101812.78;20890407;28;20128;-77
2022/06/14 21:26:16;;;;;;;1.00;0.80;;;;;;;18.26;72.88;101795.75;20889666;28;20049;-77
2022/06/14 21:36:17;;;;;;;1.08;0.70;;;;;;;18.27;73.12;101802.00;20821619;28;20055;-77
2022/06/14 21:46:19;;;;;;;0.75;0.75;;;;;;;18.19;72.96;101794.50;20805801;28;20056;-77
2022/06/14 21:56:23;;;;;;;1.30;0.80;;;;;;;18.13;73.15;101783.34;20804960;28;20053;-77
2022/06/14 22:06:29;;;;;;;2.15;1.33;;;;;;;18.26;73.14;101808.38;20802980;28;20055;-77
2022/06/14 22:16:30;;;;;;;1.00;0.82;;;;;;;18.25;73.41;101809.34;20886407;28;20052;-77
2022/06/14 22:26:35;;;;;;;2.13;0.90;;;;;;;18.09;73.39;101777.31;20884886;28;20551;-77
2022/06/14 22:36:37;;;;;;;1.27;0.75;;;;;;;18.25;73.39;101796.72;20865341;28;20102;-77
2022/06/14 22:46:38;;;;;;;2.42;1.10;;;;;;;18.23;73.49;101800.53;20883315;28;20049;-77
2022/06/14 22:56:48;;;;;;;1.77;0.90;;;;;;;18.14;73.53;101795.84;20882157;28;20555;-77
2022/06/14 23:06:50;;;;;;;2.20;1.05;;;;;;;18.20;73.58;101798.91;20881666;28;20045;-77
2022/06/14 23:16:52;;;;;;;0.80;0.80;;;;;;;18.23;73.79;101795.13;20881560;28;20574;-77
2022/06/14 23:26:54;;;;;;;1.20;0.85;;;;;;;18.22;73.74;101796.13;20881290;28;20048;-77
2022/06/14 23:36:55;;;;;;;1.20;1.10;;;;;;;18.21;73.88;101795.25;20879365;28;20053;-77
2022/06/14 23:46:57;;;;;;;0.80;0.80;;;;;;;18.19;73.69;101789.09;20878435;28;20053;-77
2022/06/14 23:56:58;;;;;;;2.85;1.23;;;;;;;17.75;73.75;101713.34;20877984;28;20049;-77
